Airfield :
LOGIN :

Register | Disclaimer

   EN    FR    IT 

 










Legend :    VFR   Marginal VFR   IFR   Intensive IFR   Very Intensive IFR
Visi :
Ceiling :
>= 8 km
>= 3000ft
5 to 8 km
1000 to 3000 ft
1500m to 5 km
500 to 1000 ft
800 to 1500m
200 to 500 ft
< 800m
< 200 ft
Symbols :   Thunderstorms  Fog  Heavy snow  Heavy precipitations  Wind > 20 kt
SIGMETs :     Misc.  Thunderstorms  Icing  Turbulence  Mountain Waves  Volcanic Ashes







- Airport Elevation : 423 ft
- IATA code : PIS
- Download approach charts


LFBI - Poitiers

CURRENT METAR :
  • 250630Z AUTO 07003KT 050V110 CAVOK 17/15 Q1015 NOSIG

EXPIRED METARs :
  • 250600Z AUTO VRB02KT CAVOK 16/15 Q1015 NOSIG
  • 250530Z AUTO VRB02KT CAVOK 16/16 Q1015 NOSIG
  • 250500Z AUTO 09002KT CAVOK 14/14 Q1015 NOSIG
  • 250430Z AUTO 12001KT CAVOK 13/13 Q1015 NOSIG
  • 250400Z AUTO 10002KT CAVOK 14/14 Q1015 NOSIG

TAF TAF LFBI
Valid from the 25 at 06:00 until the 26 at 06:00 UTC


250500Z 2506/2606 18005KT CAVOK
BECMG 2509/2512 30010KT
TEMPO 2510/2522 4500 SHRA SCT020 BKN060TCU
PROB30
TEMPO 2512/2522 VRB15G25KT 2000 -TSRA BKN015 OVC025CB
PROB30
TEMPO 2515/2518 1000 TSRAGR
BECMG 2517/2519 04010KT
No reported NOTAMs for that airfield.
1 SIGMET reported for the Bordeaux FIR (LFBB) :
 
Embedded thunderstorms
LFBB SIGMET 2 VALID 250600/250800 LFPW
LFBB BORDEAUX FIR/UIR EMBD TS OBS WI N4415 W00145 - N4545 W00145 - N4545 W00045 - N4400 W00100 - N4415 W00145 TOP FL380 MOV NNE 20KT NC=



MET'MAP, your aeronautical weather chart ! - Copyright ORBIFLY December 2007 - Disclaimer

ORBIFLY MET'MAP TEAM :

Programming & Development : Alexandra Zaïnal
Concept & Development : Baudouin d'Aumeries
Co-Development & Prog : Marc-Olivier Méhu
Technical & hardware support : Manuel Goepfert

Contact : metmap@orbifly.com




SOURCES & CREDITS :

   NOAA